createdAt,value
2022-12-25T00:01:32.034Z,96.81
2022-12-25T00:03:35.607Z,97.43
2022-12-25T00:05:39.577Z,97.23
2022-12-25T00:07:42.908Z,97.01
2022-12-25T00:09:46.513Z,97.63
2022-12-25T00:11:49.862Z,96.78
2022-12-25T00:13:53.179Z,96.86
2022-12-25T00:15:57.124Z,97.15
2022-12-25T00:18:01.816Z,97.43
2022-12-25T00:20:06.111Z,97.21
2022-12-25T00:22:09.650Z,97.81
2022-12-25T00:24:12.919Z,97.18
2022-12-25T00:26:18.523Z,97.14
2022-12-25T00:28:23.752Z,96.73
2022-12-25T00:30:27.194Z,97.05
2022-12-25T00:32:30.556Z,96.71
2022-12-25T00:34:35.588Z,96.31
2022-12-25T00:36:41.941Z,96.13
2022-12-25T00:38:46.468Z,95.29
2022-12-25T00:40:49.815Z,94.88
2022-12-25T00:42:53.123Z,94.81
2022-12-25T00:44:56.729Z,94.58
2022-12-25T00:47:00.252Z,94.31
2022-12-25T00:49:04.285Z,93.45
2022-12-25T00:51:12.431Z,93.53
2022-12-25T00:53:15.767Z,93.75
2022-12-25T00:55:19.140Z,93.42
2022-12-25T00:57:22.478Z,93.86
2022-12-25T00:59:25.882Z,93.31
2022-12-25T01:01:29.482Z,93.55
2022-12-25T01:03:33.077Z,93.39
2022-12-25T01:05:36.475Z,94.45
2022-12-25T01:07:41.158Z,94.07
2022-12-25T01:10:02.663Z,94.80
2022-12-25T01:12:06.246Z,95.13
2022-12-25T01:14:09.677Z,95.77
2022-12-25T01:16:13.002Z,96.39
2022-12-25T01:18:16.316Z,96.63
2022-12-25T01:20:19.786Z,96.61
2022-12-25T01:22:23.097Z,96.49
2022-12-25T01:24:27.839Z,96.74
2022-12-25T01:26:31.348Z,96.11
2022-12-25T01:28:34.923Z,96.83
2022-12-25T01:30:38.472Z,97.26
2022-12-25T01:32:41.824Z,97.26
2022-12-25T01:34:48.143Z,97.13
2022-12-25T01:36:53.914Z,96.84
2022-12-25T01:38:57.375Z,97.19
2022-12-25T01:41:02.109Z,96.55
2022-12-25T01:43:05.547Z,96.78
2022-12-25T01:45:32.875Z,96.90
2022-12-25T01:47:36.562Z,97.13
2022-12-25T01:49:42.028Z,96.93
2022-12-25T01:51:49.188Z,97.37
2022-12-25T01:53:52.566Z,97.36
2022-12-25T01:56:02.518Z,97.47
2022-12-25T01:58:07.432Z,96.87
2022-12-25T02:00:12.919Z,97.04
2022-12-25T02:02:16.891Z,96.71
2022-12-25T02:04:38.440Z,97.28
2022-12-25T02:06:42.821Z,97.21
2022-12-25T02:08:46.319Z,97.74
2022-12-25T02:10:49.957Z,97.88
2022-12-25T02:12:54.059Z,97.96
2022-12-25T02:15:06.102Z,97.93
2022-12-25T02:17:19.112Z,97.88
2022-12-25T02:19:39.095Z,98.01
2022-12-25T02:22:01.492Z,97.40
2022-12-25T02:24:22.829Z,98.54
2022-12-25T02:26:54.297Z,98.47
2022-12-25T02:29:04.496Z,98.50
2022-12-25T02:31:13.199Z,98.62
2022-12-25T02:33:41.101Z,98.54
2022-12-25T02:35:48.624Z,97.58
2022-12-25T02:37:57.684Z,97.87
2022-12-25T02:40:06.758Z,97.99
2022-12-25T02:42:15.163Z,97.83
2022-12-25T02:44:41.427Z,97.95
2022-12-25T02:47:03.401Z,97.67
2022-12-25T02:49:27.991Z,97.86
2022-12-25T02:51:54.672Z,98.29
2022-12-25T02:54:17.927Z,97.83
2022-12-25T02:56:41.456Z,97.89
2022-12-25T02:59:04.687Z,97.80
2022-12-25T03:01:32.040Z,98.09
2022-12-25T03:03:58.398Z,98.22
2022-12-25T03:06:23.351Z,97.59
2022-12-25T03:08:34.992Z,98.39
2022-12-25T03:10:59.827Z,98.73
2022-12-25T03:13:07.591Z,98.16
2022-12-25T03:15:30.627Z,98.27
2022-12-25T03:17:36.249Z,98.05
2022-12-25T03:19:57.200Z,98.62
2022-12-25T03:22:17.916Z,98.24
2022-12-25T03:24:38.740Z,98.53
2022-12-25T03:26:57.432Z,98.43
2022-12-25T03:29:00.854Z,98.48
2022-12-25T03:31:12.500Z,98.81
2022-12-25T03:33:44.326Z,98.68
2022-12-25T03:36:02.785Z,98.37
2022-12-25T03:38:37.676Z,98.77
2022-12-25T03:41:10.311Z,98.64
2022-12-25T03:43:52.563Z,98.75
2022-12-25T03:46:17.270Z,98.84
2022-12-25T03:48:41.470Z,98.74
2022-12-25T03:51:06.326Z,98.42
2022-12-25T03:53:35.165Z,98.36
2022-12-25T03:55:54.429Z,99.18
2022-12-25T03:58:15.253Z,98.56
2022-12-25T04:00:36.533Z,98.41
2022-12-25T04:02:57.755Z,98.41
2022-12-25T04:05:20.274Z,98.62
2022-12-25T04:07:40.995Z,98.54
2022-12-25T04:10:02.267Z,98.71
2022-12-25T04:12:23.900Z,98.86
2022-12-25T04:14:44.653Z,98.98
2022-12-25T04:17:05.458Z,99.12
2022-12-25T04:19:27.865Z,99.17
2022-12-25T04:21:50.098Z,99.34
2022-12-25T04:24:10.846Z,99.53
2022-12-25T04:26:32.491Z,99.00
2022-12-25T04:28:54.470Z,99.47
2022-12-25T04:31:19.337Z,100.00
2022-12-25T04:33:40.509Z,100.00
2022-12-25T04:36:05.349Z,100.00
2022-12-25T04:38:10.125Z,99.60
2022-12-25T04:40:13.773Z,100.00
2022-12-25T04:42:17.320Z,99.91
2022-12-25T04:44:20.706Z,100.00
2022-12-25T04:46:24.056Z,99.62
2022-12-25T04:48:28.681Z,99.64
2022-12-25T04:50:31.988Z,99.39
2022-12-25T04:52:36.441Z,99.63
2022-12-25T04:54:41.367Z,99.20
2022-12-25T04:56:45.927Z,98.92
2022-12-25T04:58:49.945Z,99.00
2022-12-25T05:00:53.306Z,98.78
2022-12-25T05:02:56.879Z,98.58
2022-12-25T05:05:00.386Z,98.77
2022-12-25T05:07:03.954Z,98.42
2022-12-25T05:09:07.692Z,99.28
2022-12-25T05:11:15.221Z,98.68
2022-12-25T05:13:18.776Z,98.97
2022-12-25T05:15:22.283Z,98.99
2022-12-25T05:17:25.735Z,99.17
2022-12-25T05:19:29.163Z,99.32
2022-12-25T05:21:32.533Z,99.56
2022-12-25T05:23:35.865Z,99.25
2022-12-25T05:25:40.721Z,98.76
2022-12-25T05:27:48.786Z,99.41
2022-12-25T05:29:57.027Z,99.06
2022-12-25T05:32:00.540Z,98.73
2022-12-25T05:34:04.589Z,98.23
2022-12-25T05:36:10.611Z,98.43
2022-12-25T05:38:13.997Z,98.04
2022-12-25T05:40:17.624Z,98.46
2022-12-25T05:42:21.136Z,98.05
2022-12-25T05:44:25.892Z,98.18
2022-12-25T05:46:29.429Z,98.03
2022-12-25T05:48:33.197Z,98.28
2022-12-25T05:50:38.601Z,98.92
2022-12-25T05:52:42.192Z,98.78
2022-12-25T05:54:46.753Z,98.57
2022-12-25T05:56:50.221Z,98.88
2022-12-25T05:58:53.600Z,98.42
2022-12-25T06:00:58.294Z,97.86
2022-12-25T06:03:01.799Z,97.86
2022-12-25T06:05:05.893Z,97.55
2022-12-25T06:07:09.388Z,97.45
2022-12-25T06:09:14.141Z,97.32
2022-12-25T06:11:17.686Z,96.95
2022-12-25T06:13:21.065Z,97.31
2022-12-25T06:15:24.494Z,97.16
2022-12-25T06:17:29.179Z,97.24
2022-12-25T06:19:32.468Z,97.00
2022-12-25T06:21:36.020Z,96.46
2022-12-25T06:23:40.234Z,96.82
2022-12-25T06:25:43.702Z,97.13
2022-12-25T06:27:47.086Z,97.58
2022-12-25T06:29:50.502Z,97.53
2022-12-25T06:31:57.217Z,97.62
2022-12-25T06:34:02.105Z,97.57
2022-12-25T06:36:07.492Z,97.87
2022-12-25T06:38:10.814Z,97.31
2022-12-25T06:40:14.703Z,97.15
2022-12-25T06:42:18.207Z,97.58
2022-12-25T06:44:22.317Z,97.26
2022-12-25T06:46:27.738Z,97.63
2022-12-25T06:48:35.181Z,98.10
2022-12-25T06:50:43.482Z,97.96
2022-12-25T06:52:47.127Z,97.39
2022-12-25T06:54:50.444Z,97.51
2022-12-25T06:56:53.776Z,97.37
2022-12-25T06:58:59.271Z,97.74
2022-12-25T07:01:15.485Z,98.38
2022-12-25T07:03:22.544Z,98.08
2022-12-25T07:05:25.900Z,98.20
2022-12-25T07:07:30.617Z,98.23
2022-12-25T07:09:34.370Z,98.13
2022-12-25T07:11:37.951Z,97.94
2022-12-25T07:13:41.690Z,97.92
2022-12-25T07:15:45.009Z,97.55
2022-12-25T07:17:48.583Z,98.06
2022-12-25T07:19:52.452Z,97.73
2022-12-25T07:21:55.849Z,97.85
2022-12-25T07:24:00.520Z,98.14
2022-12-25T07:26:04.431Z,97.75
2022-12-25T07:28:07.745Z,98.00
2022-12-25T07:30:12.247Z,98.13
2022-12-25T07:32:15.713Z,98.25
2022-12-25T07:34:19.692Z,98.43
2022-12-25T07:36:23.185Z,98.50
2022-12-25T07:38:26.946Z,98.80
2022-12-25T07:40:31.836Z,98.63
2022-12-25T07:42:35.232Z,98.56
2022-12-25T07:44:38.670Z,98.97
2022-12-25T07:46:42.121Z,98.97
2022-12-25T07:48:45.706Z,99.08
2022-12-25T07:50:49.000Z,99.07
2022-12-25T07:52:52.270Z,99.26
2022-12-25T07:54:55.707Z,99.13
2022-12-25T07:57:01.972Z,99.00
2022-12-25T07:59:05.552Z,99.56
2022-12-25T08:01:11.524Z,99.74
2022-12-25T08:03:16.918Z,99.60
2022-12-25T08:05:20.397Z,99.84
2022-12-25T08:07:24.637Z,99.98
2022-12-25T08:09:28.015Z,99.69
2022-12-25T08:11:31.379Z,99.66
2022-12-25T08:13:36.990Z,99.21
2022-12-25T08:15:40.875Z,99.18
2022-12-25T08:17:44.177Z,98.78
2022-12-25T08:19:47.569Z,98.86
2022-12-25T08:21:50.940Z,98.32
2022-12-25T08:23:54.399Z,98.91
2022-12-25T08:26:04.622Z,99.17
2022-12-25T08:28:09.110Z,98.90
2022-12-25T08:30:14.606Z,99.18
2022-12-25T08:32:18.167Z,98.90
2022-12-25T08:34:21.932Z,99.25
2022-12-25T08:36:25.983Z,99.42
2022-12-25T08:38:29.510Z,100.00
2022-12-25T08:40:33.436Z,99.63
2022-12-25T08:42:36.857Z,100.00
2022-12-25T08:44:40.378Z,100.00
2022-12-25T08:46:45.203Z,100.00
2022-12-25T08:48:50.257Z,100.00
2022-12-25T08:50:54.509Z,100.00
2022-12-25T08:52:57.871Z,100.00
2022-12-25T08:55:01.301Z,100.00
2022-12-25T08:57:05.046Z,100.00
2022-12-25T08:59:08.426Z,100.00
2022-12-25T09:01:12.843Z,100.00
2022-12-25T09:03:18.012Z,100.00
2022-12-25T09:05:21.485Z,100.00
2022-12-25T09:07:24.849Z,100.00
2022-12-25T09:09:28.643Z,100.00
2022-12-25T09:11:32.027Z,100.00
2022-12-25T09:13:35.771Z,100.00
2022-12-25T09:15:39.555Z,100.00
2022-12-25T09:17:42.967Z,100.00
2022-12-25T09:19:47.783Z,100.00
2022-12-25T09:21:51.080Z,100.00
2022-12-25T09:23:54.507Z,100.00
2022-12-25T09:25:59.990Z,100.00
2022-12-25T09:28:03.347Z,100.00
2022-12-25T09:30:08.106Z,100.00
2022-12-25T09:32:11.565Z,100.00
2022-12-25T09:34:18.766Z,100.00
2022-12-25T09:36:23.871Z,100.00
2022-12-25T09:38:27.969Z,100.00
2022-12-25T09:40:33.272Z,100.00
2022-12-25T09:42:36.858Z,100.00
2022-12-25T09:44:45.856Z,100.00
2022-12-25T09:46:54.997Z,100.00
2022-12-25T09:49:04.218Z,100.00
2022-12-25T09:51:11.322Z,100.00
2022-12-25T09:53:20.557Z,100.00
2022-12-25T09:55:26.547Z,100.00
2022-12-25T09:57:30.039Z,100.00
2022-12-25T09:59:33.405Z,100.00
2022-12-25T10:01:42.239Z,100.00
2022-12-25T10:04:11.296Z,100.00
2022-12-25T10:06:20.212Z,100.00
2022-12-25T10:08:38.806Z,100.00
2022-12-25T10:10:52.282Z,100.00
2022-12-25T10:13:08.330Z,100.00
2022-12-25T10:15:27.441Z,100.00
2022-12-25T10:17:41.472Z,100.00
2022-12-25T10:19:53.671Z,100.00
2022-12-25T10:22:02.380Z,100.00
2022-12-25T10:24:19.756Z,100.00
2022-12-25T10:26:25.399Z,100.00
2022-12-25T10:28:35.948Z,100.00
2022-12-25T10:30:42.059Z,100.00
2022-12-25T10:32:47.604Z,100.00
2022-12-25T10:34:51.433Z,100.00
2022-12-25T10:36:54.837Z,100.00
2022-12-25T10:38:58.718Z,100.00
2022-12-25T10:41:19.011Z,100.00
2022-12-25T10:43:26.563Z,100.00
2022-12-25T10:45:29.953Z,100.00
2022-12-25T10:47:37.917Z,100.00
2022-12-25T10:49:41.501Z,100.00
2022-12-25T10:51:45.159Z,100.00
2022-12-25T10:53:48.509Z,100.00
2022-12-25T10:55:59.789Z,100.00
2022-12-25T10:58:04.515Z,100.00
2022-12-25T11:00:21.584Z,100.00
2022-12-25T11:02:28.658Z,100.00
2022-12-25T11:04:36.756Z,100.00
2022-12-25T11:06:40.143Z,100.00
2022-12-25T11:08:43.465Z,100.00
2022-12-25T11:10:54.534Z,100.00
2022-12-25T11:12:58.615Z,100.00
2022-12-25T11:15:25.372Z,100.00
2022-12-25T11:17:29.398Z,100.00
2022-12-25T11:19:33.747Z,100.00
2022-12-25T11:21:38.380Z,100.00
2022-12-25T11:23:47.366Z,100.00
2022-12-25T11:25:58.872Z,100.00
2022-12-25T11:28:04.107Z,100.00
2022-12-25T11:30:16.367Z,100.00
2022-12-25T11:32:23.504Z,100.00
2022-12-25T11:34:32.341Z,100.00
2022-12-25T11:36:45.352Z,100.00
2022-12-25T11:38:48.879Z,100.00
2022-12-25T11:40:54.704Z,100.00
2022-12-25T11:43:08.207Z,100.00
2022-12-25T11:45:17.813Z,100.00
2022-12-25T11:47:27.016Z,100.00
2022-12-25T11:49:31.954Z,100.00
2022-12-25T11:51:39.937Z,100.00
2022-12-25T11:53:49.603Z,100.00
2022-12-25T11:55:57.855Z,100.00
2022-12-25T11:58:07.342Z,100.00
2022-12-25T12:00:16.610Z,100.00
2022-12-25T12:02:28.445Z,100.00
2022-12-25T12:04:42.556Z,100.00
2022-12-25T12:06:51.960Z,100.00
2022-12-25T12:09:06.397Z,100.00
2022-12-25T12:11:19.224Z,100.00
2022-12-25T12:13:36.535Z,100.00
2022-12-25T12:15:44.885Z,100.00
2022-12-25T12:17:48.371Z,100.00
2022-12-25T12:19:52.571Z,100.00
2022-12-25T12:21:58.040Z,100.00
2022-12-25T12:24:06.440Z,100.00
2022-12-25T12:26:19.897Z,100.00
2022-12-25T12:28:27.190Z,100.00
2022-12-25T12:30:32.447Z,100.00
2022-12-25T12:32:41.780Z,100.00
2022-12-25T12:34:50.506Z,100.00
2022-12-25T12:37:01.619Z,100.00
2022-12-25T12:39:06.253Z,100.00
2022-12-25T12:41:12.085Z,100.00
2022-12-25T12:43:29.357Z,100.00
2022-12-25T12:45:35.760Z,100.00
2022-12-25T12:47:43.268Z,100.00
2022-12-25T12:50:01.869Z,100.00
2022-12-25T12:52:08.386Z,100.00
2022-12-25T12:54:20.582Z,100.00
2022-12-25T12:56:25.390Z,100.00
2022-12-25T12:58:33.545Z,100.00
2022-12-25T13:00:47.642Z,100.00
2022-12-25T13:03:27.674Z,100.00
2022-12-25T13:05:39.054Z,100.00
2022-12-25T13:07:54.455Z,100.00
2022-12-25T13:10:07.745Z,100.00
2022-12-25T13:12:14.987Z,100.00
2022-12-25T13:14:21.634Z,100.00
2022-12-25T13:16:28.355Z,100.00
2022-12-25T13:18:34.917Z,100.00
2022-12-25T13:20:45.854Z,100.00
2022-12-25T13:22:52.893Z,100.00
2022-12-25T13:24:57.944Z,100.00
2022-12-25T13:27:01.995Z,100.00
2022-12-25T13:29:11.338Z,100.00
2022-12-25T13:31:19.610Z,100.00
2022-12-25T13:33:23.308Z,100.00
2022-12-25T13:35:28.687Z,100.00
2022-12-25T13:37:32.752Z,100.00
2022-12-25T13:39:37.879Z,100.00
2022-12-25T13:42:01.365Z,100.00
2022-12-25T13:44:07.749Z,100.00
2022-12-25T13:46:14.078Z,100.00
2022-12-25T13:48:20.128Z,100.00
2022-12-25T13:50:27.060Z,100.00
2022-12-25T13:52:37.407Z,100.00
2022-12-25T13:54:41.501Z,100.00
2022-12-25T13:56:49.385Z,100.00
2022-12-25T13:58:53.020Z,100.00
2022-12-25T14:00:58.635Z,100.00
2022-12-25T14:03:02.641Z,100.00
2022-12-25T14:05:24.141Z,100.00
2022-12-25T14:07:28.554Z,100.00
2022-12-25T14:09:33.862Z,100.00
2022-12-25T14:11:37.480Z,100.00
2022-12-25T14:13:43.873Z,100.00
2022-12-25T14:15:48.263Z,100.00
2022-12-25T14:17:53.110Z,100.00
2022-12-25T14:20:07.800Z,100.00
2022-12-25T14:22:19.019Z,100.00
2022-12-25T14:24:25.725Z,100.00
2022-12-25T14:26:32.536Z,100.00
2022-12-25T14:28:37.715Z,100.00
2022-12-25T14:30:43.454Z,100.00
2022-12-25T14:32:51.920Z,100.00
2022-12-25T14:34:57.889Z,100.00
2022-12-25T14:37:02.566Z,100.00
2022-12-25T14:39:08.189Z,100.00
2022-12-25T14:41:33.473Z,100.00
2022-12-25T14:43:40.392Z,100.00
2022-12-25T14:45:43.770Z,100.00
2022-12-25T14:47:52.760Z,100.00
2022-12-25T14:49:56.730Z,100.00
2022-12-25T14:52:00.307Z,100.00
2022-12-25T14:54:15.277Z,100.00
2022-12-25T14:56:21.260Z,100.00
2022-12-25T14:58:28.630Z,100.00
2022-12-25T15:00:35.766Z,100.00
2022-12-25T15:02:46.686Z,100.00
2022-12-25T15:04:50.419Z,100.00
2022-12-25T15:06:56.551Z,100.00
2022-12-25T15:09:01.608Z,100.00
2022-12-25T15:11:05.403Z,100.00
2022-12-25T15:13:09.229Z,100.00
2022-12-25T15:15:12.621Z,100.00
2022-12-25T15:17:25.354Z,100.00
2022-12-25T15:19:37.375Z,100.00
2022-12-25T15:21:44.364Z,100.00
2022-12-25T15:23:48.106Z,100.00
2022-12-25T15:25:51.798Z,100.00
2022-12-25T15:27:55.378Z,100.00
2022-12-25T15:30:09.861Z,100.00
2022-12-25T15:32:20.343Z,100.00
2022-12-25T15:34:23.753Z,100.00
2022-12-25T15:36:28.307Z,100.00
2022-12-25T15:38:36.545Z,100.00
2022-12-25T15:40:40.853Z,100.00
2022-12-25T15:42:45.393Z,100.00
2022-12-25T15:44:48.745Z,100.00
2022-12-25T15:46:52.533Z,100.00
2022-12-25T15:48:57.493Z,100.00
2022-12-25T15:51:00.907Z,100.00
2022-12-25T15:53:04.737Z,100.00
2022-12-25T15:55:09.042Z,100.00
2022-12-25T15:57:19.506Z,100.00
2022-12-25T15:59:23.849Z,100.00
2022-12-25T16:01:27.285Z,100.00
2022-12-25T16:03:31.006Z,100.00
2022-12-25T16:05:35.796Z,99.90
2022-12-25T16:07:39.775Z,100.00
2022-12-25T16:09:43.830Z,99.74
2022-12-25T16:11:48.240Z,99.90
2022-12-25T16:13:51.592Z,99.77
2022-12-25T16:15:54.983Z,100.00
2022-12-25T16:17:58.411Z,99.46
2022-12-25T16:20:01.735Z,99.54
2022-12-25T16:22:12.810Z,99.46
2022-12-25T16:24:16.229Z,99.23
2022-12-25T16:26:19.846Z,99.15
2022-12-25T16:28:23.248Z,98.97
2022-12-25T16:30:26.620Z,98.89
2022-12-25T16:32:30.260Z,98.75
2022-12-25T16:34:33.623Z,98.28
2022-12-25T16:36:37.751Z,98.26
2022-12-25T16:38:42.526Z,97.89
2022-12-25T16:40:46.719Z,97.86
2022-12-25T16:42:50.096Z,97.30
2022-12-25T16:44:54.207Z,97.27
2022-12-25T16:46:57.624Z,97.07
2022-12-25T16:49:01.126Z,96.91
2022-12-25T16:51:09.739Z,96.87
2022-12-25T16:53:13.343Z,96.60
2022-12-25T16:55:18.461Z,96.54
2022-12-25T16:57:21.813Z,96.36
2022-12-25T16:59:25.108Z,96.31
2022-12-25T17:01:28.734Z,96.35
2022-12-25T17:03:32.536Z,96.39
2022-12-25T17:05:36.242Z,96.01
2022-12-25T17:07:39.660Z,95.85
2022-12-25T17:09:44.760Z,95.44
2022-12-25T17:11:49.554Z,95.26
2022-12-25T17:13:52.865Z,95.53
2022-12-25T17:15:56.325Z,95.48
2022-12-25T17:17:59.715Z,95.54
2022-12-25T17:20:03.985Z,95.62
2022-12-25T17:22:07.612Z,95.47
2022-12-25T17:24:11.634Z,95.62
2022-12-25T17:26:15.058Z,95.99
2022-12-25T17:28:19.796Z,95.67
2022-12-25T17:30:23.303Z,95.77
2022-12-25T17:32:26.665Z,95.75
2022-12-25T17:34:30.232Z,95.50
2022-12-25T17:36:34.056Z,95.22
2022-12-25T17:38:38.059Z,95.28
2022-12-25T17:40:41.389Z,95.11
2022-12-25T17:42:44.761Z,95.09
2022-12-25T17:44:49.522Z,95.01
2022-12-25T17:46:53.022Z,94.88
2022-12-25T17:48:59.157Z,94.74
2022-12-25T17:51:03.107Z,94.97
2022-12-25T17:53:06.648Z,94.88
2022-12-25T17:55:10.645Z,94.88
2022-12-25T17:57:14.138Z,94.73
2022-12-25T17:59:19.130Z,94.67
2022-12-25T18:01:25.305Z,94.50
2022-12-25T18:03:28.812Z,94.27
2022-12-25T18:05:35.890Z,93.76
2022-12-25T18:07:39.523Z,93.81
2022-12-25T18:09:42.850Z,94.02
2022-12-25T18:11:46.541Z,93.61
2022-12-25T18:13:53.453Z,93.85
2022-12-25T18:15:56.951Z,93.89
2022-12-25T18:18:01.835Z,93.85
2022-12-25T18:20:05.928Z,93.70
2022-12-25T18:22:09.279Z,93.29
2022-12-25T18:24:12.759Z,93.37
2022-12-25T18:26:16.213Z,92.96
2022-12-25T18:28:19.681Z,92.91
2022-12-25T18:30:23.071Z,92.78
2022-12-25T18:32:28.318Z,92.56
2022-12-25T18:34:33.282Z,92.74
2022-12-25T18:36:36.944Z,92.68
2022-12-25T18:38:40.388Z,92.71
2022-12-25T18:40:44.811Z,92.29
2022-12-25T18:42:52.315Z,92.41
2022-12-25T18:44:58.386Z,92.06
2022-12-25T18:47:01.767Z,92.03
2022-12-25T18:49:05.313Z,91.86
2022-12-25T18:51:12.653Z,91.50
2022-12-25T18:53:17.398Z,91.53
2022-12-25T18:55:20.805Z,91.44
2022-12-25T18:57:24.262Z,91.09
2022-12-25T18:59:29.245Z,91.07
2022-12-25T19:01:32.722Z,90.61
2022-12-25T19:03:36.165Z,90.62
2022-12-25T19:05:40.342Z,90.51
2022-12-25T19:07:45.067Z,90.46
2022-12-25T19:09:48.550Z,90.17
2022-12-25T19:11:53.609Z,90.14
2022-12-25T19:13:57.634Z,89.50
2022-12-25T19:16:01.095Z,89.84
2022-12-25T19:18:04.581Z,89.95
2022-12-25T19:20:09.244Z,89.96
2022-12-25T19:22:12.941Z,89.90
2022-12-25T19:24:17.670Z,89.55
2022-12-25T19:26:21.835Z,89.47
2022-12-25T19:28:25.653Z,89.76
2022-12-25T19:30:29.112Z,89.62
2022-12-25T19:32:32.561Z,89.63
2022-12-25T19:34:36.118Z,89.60
2022-12-25T19:36:40.171Z,89.73
2022-12-25T19:38:44.438Z,89.84
2022-12-25T19:41:01.181Z,89.87
2022-12-25T19:43:04.733Z,90.07
2022-12-25T19:45:09.082Z,89.90
2022-12-25T19:47:12.574Z,90.05
2022-12-25T19:49:16.128Z,90.19
2022-12-25T19:51:22.042Z,90.12
2022-12-25T19:53:25.771Z,90.50
2022-12-25T19:55:29.146Z,90.63
2022-12-25T19:57:34.396Z,90.51
2022-12-25T19:59:37.728Z,90.59
2022-12-25T20:01:41.960Z,90.57
2022-12-25T20:03:46.627Z,90.59
2022-12-25T20:05:50.079Z,90.96
2022-12-25T20:07:53.528Z,90.70
2022-12-25T20:09:56.890Z,90.56
2022-12-25T20:12:00.296Z,90.71
2022-12-25T20:14:05.697Z,90.52
2022-12-25T20:16:10.142Z,90.24
2022-12-25T20:18:13.507Z,90.06
2022-12-25T20:20:16.979Z,89.93
2022-12-25T20:22:20.308Z,90.03
2022-12-25T20:24:24.587Z,90.06
2022-12-25T20:26:30.381Z,90.07
2022-12-25T20:28:34.891Z,90.06
2022-12-25T20:30:41.262Z,89.72
2022-12-25T20:32:50.448Z,89.70
2022-12-25T20:34:54.170Z,89.82
2022-12-25T20:36:57.737Z,89.54
2022-12-25T20:39:01.420Z,89.53
2022-12-25T20:43:30.165Z,89.34
2022-12-25T20:45:33.739Z,89.30
2022-12-25T20:47:38.887Z,89.27
2022-12-25T20:49:42.218Z,89.26
2022-12-25T20:51:45.522Z,89.30
2022-12-25T20:53:49.833Z,89.27
2022-12-25T20:55:53.178Z,92.04
2022-12-25T20:57:56.583Z,89.46
2022-12-25T20:59:59.909Z,89.28
2022-12-25T21:02:03.356Z,89.46
2022-12-25T21:04:12.916Z,89.28
2022-12-25T21:06:19.310Z,89.27
2022-12-25T21:08:26.129Z,89.34
2022-12-25T21:10:29.516Z,89.21
2022-12-25T21:12:32.910Z,89.36
2022-12-25T21:14:37.054Z,89.19
2022-12-25T21:16:40.493Z,89.14
2022-12-25T21:18:43.897Z,89.25
2022-12-25T21:20:50.815Z,89.62
2022-12-25T21:22:54.141Z,89.07
2022-12-25T21:24:57.590Z,89.43
2022-12-25T21:27:01.075Z,89.51
2022-12-25T21:29:04.804Z,89.55
2022-12-25T21:31:09.027Z,89.42
2022-12-25T21:33:45.684Z,89.42
2022-12-25T21:35:50.414Z,89.50
2022-12-25T21:37:53.811Z,89.61
2022-12-25T21:39:57.145Z,89.67
2022-12-25T21:42:00.540Z,89.93
2022-12-25T21:44:04.020Z,90.00
2022-12-25T21:46:09.420Z,90.08
2022-12-25T21:48:13.328Z,89.71
2022-12-25T21:50:39.083Z,89.80
2022-12-25T21:52:44.153Z,89.93
2022-12-25T21:54:47.468Z,90.12
2022-12-25T21:56:51.179Z,89.78
2022-12-25T21:58:54.587Z,89.56
2022-12-25T22:01:03.218Z,89.47
2022-12-25T22:03:06.692Z,89.19
2022-12-25T22:05:30.492Z,89.14
2022-12-25T22:07:33.085Z,88.96
2022-12-25T22:09:38.352Z,88.87
2022-12-25T22:11:59.634Z,89.14
2022-12-25T22:14:16.923Z,88.98
2022-12-25T22:16:38.285Z,88.94
2022-12-25T22:18:59.504Z,89.03
2022-12-25T22:21:02.938Z,89.04
2022-12-25T22:23:06.501Z,88.94
2022-12-25T22:25:12.009Z,89.20
2022-12-25T22:27:15.390Z,89.00
2022-12-25T22:29:18.717Z,89.04
2022-12-25T22:31:22.152Z,88.89
2022-12-25T22:33:27.946Z,89.01
2022-12-25T22:35:31.369Z,88.85
2022-12-25T22:37:35.865Z,89.17
2022-12-25T22:39:39.361Z,89.15
2022-12-25T22:41:44.096Z,88.74
2022-12-25T22:46:10.840Z,88.39
2022-12-25T22:48:14.358Z,88.39
2022-12-25T22:50:17.758Z,88.37
2022-12-25T22:52:21.186Z,88.43
2022-12-25T22:54:25.700Z,88.23
2022-12-25T22:56:29.117Z,88.21
2022-12-25T22:58:34.338Z,88.04
2022-12-25T23:00:44.243Z,88.45
2022-12-25T23:02:49.527Z,88.45
2022-12-25T23:04:53.050Z,88.48
2022-12-25T23:06:56.671Z,88.18
2022-12-25T23:09:00.335Z,88.16
2022-12-25T23:11:04.643Z,87.65
2022-12-25T23:13:27.869Z,87.83
2022-12-25T23:15:32.740Z,87.56
2022-12-25T23:17:53.799Z,87.31
2022-12-25T23:20:15.624Z,87.01
2022-12-25T23:22:35.913Z,86.90
2022-12-25T23:24:57.015Z,86.84
2022-12-25T23:27:00.404Z,87.26
2022-12-25T23:29:21.586Z,87.28
2022-12-25T23:31:29.295Z,87.73
2022-12-25T23:33:32.925Z,87.88
2022-12-25T23:35:36.265Z,87.98
2022-12-25T23:37:39.667Z,88.12
2022-12-25T23:39:42.996Z,88.00
2022-12-25T23:41:46.394Z,88.34
2022-12-25T23:43:49.796Z,88.94
2022-12-25T23:45:53.071Z,89.81
2022-12-25T23:47:58.139Z,90.78
2022-12-25T23:50:01.505Z,91.49
2022-12-25T23:52:05.058Z,91.81
2022-12-25T23:54:09.256Z,92.36
2022-12-25T23:56:13.294Z,92.63
2022-12-25T23:58:16.604Z,92.97
